Flight Track Log - Related Links

Times and Time Zones

All times are in EDT time to prevent confusion due to time zone crossing. See the N978AC flight status page for this flight to view local times or setup timezone preferences in your user account.

Time Position Orientation Groundspeed Altitude Reporting Facility
EDT Latitude Longitude Course Direction KTS MPH feet Rate Location/Type
Fri 07:25:00 PM 36.3066 -119.3819 144° Southeast  Level FlightAware Approximate
Fri 07:26:00 PM 36.2859 -119.3630 144° Southeast  Level FlightAware Approximate
Fri 07:27:00 PM 36.2652 -119.3441 144° Southeast  Level FlightAware Approximate
Fri 07:28:00 PM 36.2445 -119.3253 144° Southeast  Level FlightAware Approximate
Fri 07:29:00 PM 36.2238 -119.3065 144° Southeast  Level FlightAware Approximate
Fri 07:30:00 PM 36.1989 -119.2822 141° Southeast  Level FlightAware Approximate
Fri 07:31:00 PM 36.1789 -119.2622 141° Southeast  Level FlightAware Approximate
Fri 07:32:00 PM 36.1590 -119.2422 141° Southeast  Level FlightAware Approximate
Fri 07:33:00 PM 36.1390 -119.2223 141° Southeast  Level FlightAware Approximate
Fri 07:34:00 PM 36.1190 -119.2023 141° Southeast  Level FlightAware Approximate
Fri 07:34:33 PM 35.8867 -119.0108 135° Southeast 84 97 8,900  Level Los Angeles Center
Fri 07:35:00 PM 36.0988 -119.1833 180° South  Level FlightAware Approximate
Fri 07:35:36 PM 35.8650 -119.0067 171° South 84 97 9,100  Level Los Angeles Center
Fri 07:36:00 PM 36.0761 -119.1743 135° Southeast  Level FlightAware Approximate
Fri 07:36:38 PM 35.8453 -118.9964 157° South 82 94 9,400  Level Los Angeles Center
Fri 07:37:00 PM 36.0581 -119.1517 135° Southeast  Level FlightAware Approximate
Fri 07:37:40 PM 35.8247 -118.9894 165° South 79 91 9,500  Level Los Angeles Center
Fri 07:38:00 PM 36.0400 -119.1292 135° Southeast  Level FlightAware Approximate
Fri 07:38:42 PM 35.7997 -118.9808 164° South 79 91 9,800  Level Los Angeles Center
Fri 07:39:00 PM 36.0220 -119.1066 135° Southeast  Level FlightAware Approximate
Fri 07:39:44 PM 35.7786 -118.9719 161° South 79 91 10,000  Level Los Angeles Center
Fri 07:40:46 PM 35.7583 -118.9647 164° South 79 91 10,200 194 Climbing Los Angeles Center
Fri 07:41:48 PM 35.7369 -118.9589 168° South 79 91 10,400 194 Climbing Los Angeles Center
Fri 07:42:50 PM 35.7153 -118.9511 164° South 79 91 10,600 192 Climbing Los Angeles Center
Fri 07:43:53 PM 35.6939 -118.9442 165° South 79 91 10,800 192 Climbing Los Angeles Center
Fri 07:44:55 PM 35.6678 -118.9325 160° South 79 91 11,000 145 Climbing Los Angeles Center
Fri 07:45:57 PM 35.6464 -118.9222 159° South 79 91 11,100 97 Climbing Los Angeles Center
Fri 07:46:59 PM 35.6225 -118.9158 168° South 81 93 11,200 48 Climbing Los Angeles Center
Fri 07:48:01 PM 35.5950 -118.9025 158° South 97 112 11,200  Level Los Angeles Center
Fri 07:49:03 PM 35.5672 -118.8956 169° South 99 114 11,200 -48 Level Los Angeles Center
Fri 07:50:05 PM 35.5389 -118.8875 167° South 105 121 11,100 -48 Descending Los Angeles Center
Fri 07:51:07 PM 35.5061 -118.8797 169° South 103 119 11,100 48 Level Los Angeles Center
Fri 07:52:10 PM 35.4808 -118.8658 156° South 103 119 11,200  Climbing Los Angeles Center
Fri 07:53:12 PM 35.4561 -118.8508 154° Southeast 102 117 11,100  Descending Los Angeles Center
Fri 07:54:14 PM 35.4286 -118.8419 165° South 101 116 11,200 48 Climbing Los Angeles Center
Fri 07:55:16 PM 35.4014 -118.8347 168° South 101 116 11,200  Level Los Angeles Center
Fri 07:56:18 PM 35.3694 -118.8222 162° South 101 116 11,200 -48 Level Los Angeles Center
Fri 07:57:20 PM 35.3431 -118.8069 155° Southeast 101 116 11,100 -48 Descending Los Angeles Center
Fri 07:58:22 PM 35.3164 -118.7983 165° South 101 116 11,100  Level Los Angeles Center
Fri 07:59:24 PM 35.2886 -118.7897 166° South 101 116 11,100  Level Los Angeles Center
Fri 08:00:27 PM 35.2611 -118.7803 164° South 101 116 11,100  Level Los Angeles Center
Fri 08:01:29 PM 35.2333 -118.7711 165° South 102 117 11,100  Level Los Angeles Center
Fri 08:02:31 PM 35.2003 -118.7572 161° South 102 117 11,100  Level Los Angeles Center
Fri 08:03:34 PM 35.1747 -118.7422 154° Southeast 102 117 11,100  Level Los Angeles Center
Fri 08:04:36 PM 35.1569 -118.7147 128° Southeast 102 117 11,100  Level Los Angeles Center
Fri 08:05:38 PM 35.1350 -118.6906 138° Southeast 103 119 11,100  Level Los Angeles Center
Fri 08:06:40 PM 35.1161 -118.6656 133° Southeast 103 119 11,100  Level Los Angeles Center
Fri 08:07:42 PM 35.0975 -118.6381 130° Southeast 103 119 11,100  Level Los Angeles Center
Fri 08:08:44 PM 35.0694 -118.6094 140° Southeast 106 122 11,100 48 Level Los Angeles Center
Fri 08:09:46 PM 35.0494 -118.5842 134° Southeast 107 123 11,200 48 Climbing Los Angeles Center
Fri 08:10:48 PM 35.0306 -118.5578 131° Southeast 105 121 11,200  Level Los Angeles Center
Fri 08:11:51 PM 35.0336 -118.5242 84° East 102 117 11,200 -48 Level Los Angeles Center
Fri 08:12:53 PM 35.0292 -118.4911 99° East 100 115 11,100 -48 Descending Los Angeles Center
Fri 08:13:55 PM 35.0250 -118.4522 97° East 100 115 11,100  Level Los Angeles Center
Fri 08:14:57 PM 35.0244 -118.4203 91° East 98 113 11,100 48 Level Los Angeles Center
Fri 08:16:00 PM 35.0192 -118.3894 102° East 96 110 11,200 48 Climbing Los Angeles Center
Fri 08:17:01 PM 35.0133 -118.3581 103° East 95 109 11,200 -49 Level Los Angeles Center
Fri 08:18:03 PM 35.0094 -118.3242 98° East 99 114 11,100 -48 Descending Los Angeles Center
Fri 08:19:05 PM 35.0028 -118.2828 101° East 104 120 11,100 48 Level Los Angeles Center
Fri 08:20:07 PM 34.9994 -118.2533 98° East 94 108 11,200 48 Climbing Los Angeles Center
Fri 08:21:10 PM 35.0019 -118.2183 85° East 100 115 11,200  Level Los Angeles Center
Fri 08:22:12 PM 34.9975 -118.1847 99° East 100 115 11,200  Level Los Angeles Center
Fri 08:23:14 PM 34.9914 -118.1497 102° East 101 116 11,200  Level Los Angeles Center
Fri 08:24:16 PM 34.9906 -118.1172 92° East 101 116 11,200 -48 Level Los Angeles Center
Fri 08:25:18 PM 34.9853 -118.0794 100° East 99 114 11,100 -48 Descending Los Angeles Center
Fri 08:26:20 PM 34.9806 -118.0481 100° East 97 112 11,100 48 Level Los Angeles Center
Fri 08:27:22 PM 34.9778 -118.0183 96° East 95 109 11,200  Climbing Los Angeles Center
Fri 08:28:24 PM 34.9731 -117.9886 101° East 94 108 11,100 -48 Descending Los Angeles Center
Fri 08:29:27 PM 34.9700 -117.9572 97° East 93 107 11,100  Level Los Angeles Center
Fri 08:30:29 PM 34.9658 -117.9200 98° East 93 107 11,100  Level Los Angeles Center
Fri 08:31:31 PM 34.9633 -117.8881 95° East 93 107 11,100  Level Los Angeles Center
Fri 08:32:33 PM 34.9589 -117.8572 100° East 93 107 11,100  Level Los Angeles Center
Fri 08:33:35 PM 34.9558 -117.8283 97° East 92 106 11,100  Level Los Angeles Center
Fri 08:34:37 PM 34.9522 -117.7989 99° East 91 105 11,100  Level Los Angeles Center
Fri 08:35:39 PM 34.9475 -117.7636 99° East 91 105 11,100 48 Level Los Angeles Center
Fri 08:36:41 PM 34.9447 -117.7347 97° East 91 105 11,200  Climbing Los Angeles Center
Fri 08:37:44 PM 34.9403 -117.7083 102° East 86 99 11,100  Descending Los Angeles Center
Fri 08:38:46 PM 34.9367 -117.6789 99° East 86 99 11,200  Climbing Los Angeles Center
Fri 08:39:48 PM 34.9317 -117.6458 100° East 92 106 11,100 -48 Descending Los Angeles Center
Fri 08:40:50 PM 34.9283 -117.6056 96° East 96 110 11,100  Level Los Angeles Center
Fri 08:41:52 PM 34.9261 -117.5711 94° East 98 113 11,100  Level Los Angeles Center
Fri 08:42:54 PM 34.9211 -117.5381 100° East 98 113 11,100  Level Los Angeles Center
Fri 08:43:56 PM 34.9178 -117.5039 97° East 98 113 11,100 48 Level Los Angeles Center
Fri 08:44:59 PM 34.9156 -117.4692 94° East 100 115 11,200  Climbing Los Angeles Center
Fri 08:46:01 PM 34.9114 -117.4264 97° East 103 119 11,100  Descending Los Angeles Center
Fri 08:47:03 PM 34.9081 -117.3906 96° East 104 120 11,200  Climbing Los Angeles Center
Fri 08:48:05 PM 34.9011 -117.3550 103° East 104 120 11,100 -48 Descending Los Angeles Center
Fri 08:49:07 PM 34.8972 -117.3206 98° East 104 120 11,100 48 Level Los Angeles Center
Fri 08:50:09 PM 34.8936 -117.2875 98° East 104 120 11,200 48 Climbing Los Angeles Center
Fri 08:51:11 PM 34.8897 -117.2533 98° East 104 120 11,200  Level Los Angeles Center
Fri 08:52:13 PM 34.8867 -117.2133 95° East 103 119 11,200  Level Los Angeles Center
Fri 08:53:15 PM 34.8819 -117.1817 100° East 102 117 11,200  Level Los Angeles Center
Fri 08:54:18 PM 34.8775 -117.1481 99° East 102 117 11,200  Level Los Angeles Center
Fri 08:55:19 PM 34.8733 -117.1147 99° East 102 117 11,200  Level Los Angeles Center
Fri 08:56:21 PM 34.8683 -117.0836 101° East 101 116 11,200 -48 Level Los Angeles Center
Fri 08:57:24 PM 34.8644 -117.0456 97° East 99 114 11,100 -48 Descending Los Angeles Center
Fri 08:58:26 PM 34.8608 -117.0158 98° East 94 108 11,100 48 Level Los Angeles Center
Fri 08:59:29 PM 34.8569 -116.9858 99° East 94 108 11,200 48 Climbing Los Angeles Center
Fri 09:00:31 PM 34.8558 -116.9550 93° East 92 106 11,200  Level Los Angeles Center
Fri 09:01:33 PM 34.8508 -116.9250 101° East 92 106 11,200  Level Los Angeles Center
Fri 09:02:35 PM 34.8458 -116.8961 102° East 92 106 11,200  Level Los Angeles Center
Fri 09:03:37 PM 34.8436 -116.8586 94° East 92 106 11,200  Level Los Angeles Center
Fri 09:04:39 PM 34.8414 -116.8289 95° East 92 106 11,200 -48 Level Los Angeles Center
Fri 09:05:41 PM 34.8378 -116.7983 98° East 92 106 11,100  Descending Los Angeles Center
Fri 09:06:43 PM 34.8322 -116.7700 103° East 91 105 11,200 48 Climbing Los Angeles Center
Fri 09:07:45 PM 34.8281 -116.7406 100° East 90 104 11,200  Level Los Angeles Center
Fri 09:08:47 PM 34.8275 -116.7089 91° East 91 105 11,200  Level Los Angeles Center
Fri 09:09:48 PM 34.8222 -116.6681 99° East 98 113 11,200  Level Los Angeles Center
Fri 09:10:50 PM 34.8178 -116.6350 99° East 98 113 11,200  Level Los Angeles Center
Fri 09:11:52 PM 34.8133 -116.6033 100° East 98 113 11,200  Level Los Angeles Center
Fri 09:12:55 PM 34.8103 -116.5717 97° East 98 113 11,200  Level Los Angeles Center
Fri 09:13:57 PM 34.8061 -116.5386 99° East 98 113 11,200 -48 Level Los Angeles Center
Fri 09:14:59 PM 34.8017 -116.5056 99° East 98 113 11,100  Descending Los Angeles Center
Fri 09:16:01 PM 34.7981 -116.4692 97° East 97 112 11,200  Climbing Los Angeles Center
Fri 09:17:03 PM 34.7950 -116.4386 97° East 95 109 11,100 -48 Descending Los Angeles Center
Fri 09:18:05 PM 34.7956 -116.4078 89° East 94 108 11,100  Level Los Angeles Center
Fri 09:19:07 PM 34.7978 -116.3767 85° East 94 108 11,100  Level Los Angeles Center
Fri 09:20:09 PM 34.7972 -116.3439 91° East 94 108 11,100 48 Level Los Angeles Center
Fri 09:21:11 PM 34.7964 -116.3064 92° East 94 108 11,200  Climbing Los Angeles Center
Fri 09:22:13 PM 34.7956 -116.2733 92° East 94 108 11,100  Descending Los Angeles Center
Fri 09:23:15 PM 34.7961 -116.2406 89° East 95 109 11,200 48 Climbing Los Angeles Center
Fri 09:24:17 PM 34.7936 -116.2058 95° East 96 110 11,200 -48 Level Los Angeles Center
Fri 09:25:19 PM 34.7917 -116.1728 94° East 96 110 11,100  Descending Los Angeles Center
Fri 09:26:21 PM 34.7917 -116.1400 90° East 97 112 11,200  Climbing Los Angeles Center
Fri 09:27:23 PM 34.7922 -116.0992 89° East 97 112 11,100  Descending Los Angeles Center
Fri 09:28:25 PM 34.7900 -116.0647 94° East 98 113 11,200  Climbing Los Angeles Center
Fri 09:29:27 PM 34.7878 -116.0325 95° East 98 113 11,100  Descending Los Angeles Center
Fri 09:30:29 PM 34.7872 -115.9989 91° East 98 113 11,200 48 Climbing Los Angeles Center
Fri 09:31:31 PM 34.7861 -115.9636 92° East 98 113 11,200  Level Los Angeles Center
Fri 09:32:33 PM 34.7864 -115.9289 89° East 101 116 11,200 -48 Level Los Angeles Center
Fri 09:33:35 PM 34.7903 -115.8944 82° East 101 116 11,100  Descending Los Angeles Center
Fri 09:34:36 PM 34.7886 -115.8561 93° East 99 114 11,200  Climbing Los Angeles Center
Fri 09:35:38 PM 34.7869 -115.8231 94° East 96 110 11,100 -48 Descending Los Angeles Center
Fri 09:36:40 PM 34.7894 -115.7875 85° East 103 119 11,100 48 Level Los Angeles Center
Fri 09:37:42 PM 34.7906 -115.7547 88° East 101 116 11,200  Climbing Los Angeles Center
Fri 09:38:44 PM 34.7911 -115.7211 89° East 100 115 11,100 -48 Descending Los Angeles Center
Fri 09:39:46 PM 34.7914 -115.6900 89° East 95 109 11,100 48 Level Los Angeles Center
Fri 09:40:48 PM 34.7911 -115.6536 91° East 93 107 11,200 49 Climbing Los Angeles Center
Fri 09:41:49 PM 34.7906 -115.6211 91° East 93 107 11,200  Level Los Angeles Center
Fri 09:42:51 PM 34.7906 -115.5861 90° East 103 119 11,200  Level Los Angeles Center
Fri 09:43:53 PM 34.7897 -115.5517 92° East 104 120 11,200  Level Los Angeles Center
Fri 09:44:55 PM 34.7911 -115.5069 88° East 108 124 11,200 -49 Level Los Angeles Center
Fri 09:45:56 PM 34.7889 -115.4703 94° East 109 125 11,100  Descending Los Angeles Center
Fri 09:46:58 PM 34.7872 -115.4364 93° East 105 121 11,200  Climbing Los Angeles Center
Fri 09:48:00 PM 34.7856 -115.4014 93° East 105 121 11,100 -484 Descending Los Angeles Center
Fri 09:49:02 PM 34.7828 -115.3653 95° East 104 120 10,200 -878 Descending Los Angeles Center
Fri 09:50:03 PM 34.7822 -115.3253 91° East 112 129 9,300 -927 Descending Los Angeles Center
Fri 09:51:05 PM 34.7772 -115.2858 99° East 113 130 8,300 -532 Descending Los Angeles Center
Fri 09:52:07 PM 34.7747 -115.2531 95° East 109 125 8,200 -49 Descending Los Angeles Center
Fri 09:53:08 PM 34.7747 -115.2186 90° East 107 123 8,200  Level Los Angeles Center
Fri 09:54:10 PM 34.7772 -115.1817 85° East 102 117 8,200 48 Level Los Angeles Center
Fri 09:55:12 PM 34.7733 -115.1544 100° East 91 105 8,300  Climbing Los Angeles Center
Fri 09:56:13 PM 34.7747 -115.1206 87° East 92 106 8,200  Descending Los Angeles Center
Fri 09:57:15 PM 34.7769 -115.0925 84° East 89 102 8,300  Climbing Los Angeles Center
Fri 09:58:17 PM 34.7769 -115.0617 90° East 88 101 8,200  Descending Los Angeles Center
Fri 09:59:18 PM 34.7767 -115.0294 91° East 88 101 8,300  Climbing Los Angeles Center
Fri 10:00:20 PM 34.7722 -114.9925 98° East 89 102 8,200 -49 Descending Los Angeles Center
Fri 10:01:21 PM 34.7681 -114.9650 100° East 89 102 8,200 49 Level Los Angeles Center
Fri 10:02:23 PM 34.7672 -114.9358 92° East 89 102 8,300  Climbing Los Angeles Center
Fri 10:03:25 PM 34.7669 -114.9053 91° East 89 102 8,200 -98 Descending Los Angeles Center
Fri 10:04:26 PM 34.7650 -114.8703 94° East 91 105 8,100 -341 Descending Los Angeles Center
Fri 10:05:28 PM 34.7642 -114.8333 92° East 99 114 7,500 -435 Descending Los Angeles Center
Fri 10:06:30 PM 34.7653 -114.7961 88° East 104 120 7,200 -146 Descending Los Angeles Center
Fri 10:07:31 PM 34.7667 -114.7531 88° East 104 120 7,200 -23 Level Los Angeles Center
Fri 10:10:49 PM 34.7658 -114.6458 96° East 88 101 7,100 23 Descending Los Angeles Center
Fri 10:11:50 PM 34.7636 -114.6097 94° East 105 121 7,300  Climbing Los Angeles Center
Fri 10:12:52 PM 34.7600 -114.5761 97° East 104 120 7,100 -194 Descending Los Angeles Center
Fri 10:16:00 PM 34.7506 -114.4737 96° East  Level FlightAware Approximate

Login

Don't have an account? Register now (free) for customized features, flight alerts, and more!